createdAt,value
2016-11-05T00:01:18.808Z,0
2016-11-05T00:02:30.516Z,0
2016-11-05T00:03:42.623Z,0
2016-11-05T00:04:53.305Z,0
2016-11-05T00:06:07.994Z,0
2016-11-05T00:07:19.330Z,0
2016-11-05T00:08:30.006Z,0
2016-11-05T00:09:40.681Z,0
2016-11-05T00:10:51.376Z,0
2016-11-05T00:12:06.594Z,0
2016-11-05T00:13:17.385Z,0
2016-11-05T00:14:28.060Z,0
2016-11-05T00:15:38.771Z,0
2016-11-05T00:16:49.847Z,0
2016-11-05T00:18:00.523Z,0
2016-11-05T00:19:11.297Z,0
2016-11-05T00:20:22.018Z,0
2016-11-05T00:21:33.205Z,0
2016-11-05T00:22:44.244Z,0
2016-11-05T00:23:55.363Z,0
2016-11-05T00:25:06.258Z,0
2016-11-05T00:26:17.040Z,0
2016-11-05T00:27:28.551Z,0
2016-11-05T00:28:39.599Z,0
2016-11-05T00:29:50.680Z,0
2016-11-05T00:31:01.345Z,0
2016-11-05T00:32:12.043Z,0
2016-11-05T00:33:22.805Z,0
2016-11-05T00:34:33.556Z,0
2016-11-05T00:35:44.324Z,0
2016-11-05T00:36:55.172Z,0
2016-11-05T00:38:05.960Z,0
2016-11-05T00:39:16.737Z,0
2016-11-05T00:40:28.247Z,0
2016-11-05T00:41:39.746Z,0
2016-11-05T00:42:50.425Z,0
2016-11-05T00:44:01.129Z,0
2016-11-05T00:45:11.880Z,0
2016-11-05T00:46:23.204Z,0
2016-11-05T00:47:33.984Z,0
2016-11-05T00:48:44.849Z,0
2016-11-05T00:49:55.961Z,0
2016-11-05T00:51:06.686Z,0
2016-11-05T00:52:17.413Z,0
2016-11-05T00:53:29.227Z,0
2016-11-05T00:54:40.403Z,0
2016-11-05T00:55:51.499Z,0
2016-11-05T00:57:02.573Z,0
2016-11-05T00:58:13.690Z,0
2016-11-05T00:59:24.519Z,0
2016-11-05T01:00:35.190Z,0
2016-11-05T01:01:45.889Z,0
2016-11-05T01:02:56.627Z,0
2016-11-05T01:04:07.322Z,0
2016-11-05T01:05:18.448Z,0
2016-11-05T01:06:29.528Z,0
2016-11-05T01:07:40.770Z,0
2016-11-05T01:08:51.457Z,0
2016-11-05T01:10:02.157Z,0
2016-11-05T01:11:12.859Z,0
2016-11-05T01:12:23.923Z,0
2016-11-05T01:13:35.017Z,0
2016-11-05T01:14:46.113Z,0
2016-11-05T01:15:57.334Z,0
2016-11-05T01:17:08.099Z,0
2016-11-05T01:18:18.971Z,0
2016-11-05T01:19:29.704Z,0
2016-11-05T01:20:40.776Z,0
2016-11-05T01:21:51.834Z,0
2016-11-05T01:23:02.934Z,0
2016-11-05T01:24:13.999Z,0
2016-11-05T01:25:25.832Z,0
2016-11-05T01:26:36.921Z,0
2016-11-05T01:27:48.390Z,0
2016-11-05T01:28:59.821Z,0
2016-11-05T01:30:11.542Z,0
2016-11-05T01:31:22.292Z,0
2016-11-05T01:32:33.361Z,0
2016-11-05T01:33:44.879Z,0
2016-11-05T01:34:56.054Z,0
2016-11-05T01:36:07.313Z,0
2016-11-05T01:37:17.969Z,0
2016-11-05T01:38:29.089Z,0
2016-11-05T01:39:39.865Z,0
2016-11-05T01:40:50.925Z,0
2016-11-05T01:42:02.056Z,0
2016-11-05T01:43:12.813Z,0
2016-11-05T01:44:23.864Z,0
2016-11-05T01:45:34.926Z,0
2016-11-05T01:46:45.564Z,0
2016-11-05T01:47:56.709Z,0
2016-11-05T01:49:07.776Z,0
2016-11-05T01:50:18.877Z,0
2016-11-05T01:51:29.535Z,0
2016-11-05T01:52:40.292Z,0
2016-11-05T01:53:51.054Z,0
2016-11-05T01:55:01.750Z,0
2016-11-05T01:56:12.950Z,0
2016-11-05T01:57:24.095Z,0
2016-11-05T01:58:35.149Z,0
2016-11-05T01:59:46.875Z,0
2016-11-05T02:00:58.316Z,0
2016-11-05T02:02:09.026Z,0
2016-11-05T02:03:19.761Z,0
2016-11-05T02:04:30.468Z,0
2016-11-05T02:05:41.570Z,0
2016-11-05T02:06:52.683Z,0
2016-11-05T02:08:04.249Z,0
2016-11-05T02:09:14.886Z,0
2016-11-05T02:10:25.937Z,0
2016-11-05T02:11:37.857Z,0
2016-11-05T02:12:48.971Z,0
2016-11-05T02:13:59.652Z,0
2016-11-05T02:15:10.344Z,0
2016-11-05T02:16:21.034Z,0
2016-11-05T02:17:32.639Z,0
2016-11-05T02:18:43.847Z,0
2016-11-05T02:19:54.602Z,0
2016-11-05T02:21:05.637Z,0
2016-11-05T02:22:16.293Z,0
2016-11-05T02:23:27.100Z,0
2016-11-05T02:24:38.208Z,0
2016-11-05T02:25:49.332Z,0
2016-11-05T02:27:00.011Z,0
2016-11-05T02:28:11.101Z,0
2016-11-05T02:29:21.940Z,0
2016-11-05T02:30:33.447Z,0
2016-11-05T02:31:44.141Z,0
2016-11-05T02:32:54.796Z,0
2016-11-05T02:34:05.861Z,0
2016-11-05T02:35:16.994Z,0
2016-11-05T02:36:28.044Z,0
2016-11-05T02:37:39.121Z,0
2016-11-05T02:38:50.226Z,0
2016-11-05T02:40:00.948Z,0
2016-11-05T02:41:12.085Z,0
2016-11-05T02:42:22.824Z,0
2016-11-05T02:43:33.900Z,0
2016-11-05T02:44:44.975Z,0
2016-11-05T02:45:56.055Z,0
2016-11-05T02:47:07.531Z,0
2016-11-05T02:48:18.221Z,0
2016-11-05T02:49:28.923Z,0
2016-11-05T02:50:39.652Z,0
2016-11-05T02:51:50.821Z,0
2016-11-05T02:53:01.619Z,0
2016-11-05T02:54:12.364Z,0
2016-11-05T02:55:23.059Z,0
2016-11-05T02:56:33.755Z,0
2016-11-05T02:57:45.598Z,0
2016-11-05T02:58:56.269Z,0
2016-11-05T03:00:06.887Z,0
2016-11-05T03:01:18.332Z,0
2016-11-05T03:02:29.013Z,0
2016-11-05T03:03:40.211Z,0
2016-11-05T03:04:50.966Z,0
2016-11-05T03:06:02.051Z,0
2016-11-05T03:07:13.149Z,0
2016-11-05T03:08:23.874Z,0
2016-11-05T03:09:36.273Z,0
2016-11-05T03:10:47.078Z,0
2016-11-05T03:11:57.783Z,0
2016-11-05T03:13:08.506Z,0
2016-11-05T03:14:19.263Z,0
2016-11-05T03:15:31.134Z,0
2016-11-05T03:16:42.713Z,0
2016-11-05T03:17:53.806Z,0
2016-11-05T03:19:04.493Z,0
2016-11-05T03:20:15.244Z,0
2016-11-05T03:21:26.695Z,0
2016-11-05T03:22:37.797Z,0
2016-11-05T03:23:48.462Z,0
2016-11-05T03:24:59.120Z,0
2016-11-05T03:26:10.202Z,0
2016-11-05T03:27:21.301Z,0
2016-11-05T03:28:32.032Z,0
2016-11-05T03:29:42.763Z,0
2016-11-05T03:30:53.463Z,0
2016-11-05T03:32:04.665Z,0
2016-11-05T03:33:15.406Z,0
2016-11-05T03:34:26.656Z,0
2016-11-05T03:35:37.385Z,0
2016-11-05T03:36:48.161Z,0
2016-11-05T03:37:59.310Z,0
2016-11-05T03:39:10.025Z,0
2016-11-05T03:40:21.220Z,0
2016-11-05T03:41:32.453Z,0
2016-11-05T03:42:43.186Z,0
2016-11-05T03:43:53.910Z,0
2016-11-05T03:45:05.073Z,0
2016-11-05T03:46:16.273Z,0
2016-11-05T03:47:27.420Z,0
2016-11-05T03:48:38.532Z,0
2016-11-05T03:49:49.664Z,0
2016-11-05T03:51:00.366Z,0
2016-11-05T03:52:11.152Z,0
2016-11-05T03:53:21.844Z,0
2016-11-05T03:54:32.951Z,0
2016-11-05T03:55:44.058Z,0
2016-11-05T03:56:55.106Z,0
2016-11-05T03:58:06.816Z,0
2016-11-05T03:59:17.855Z,0
2016-11-05T04:00:28.932Z,0
2016-11-05T04:01:39.990Z,0
2016-11-05T04:02:50.610Z,0
2016-11-05T04:04:01.789Z,0
2016-11-05T04:05:12.517Z,0
2016-11-05T04:06:23.256Z,0
2016-11-05T04:07:33.891Z,0
2016-11-05T04:08:44.933Z,0
2016-11-05T04:09:55.648Z,0
2016-11-05T04:11:06.773Z,0
2016-11-05T04:12:17.985Z,0
2016-11-05T04:13:28.680Z,0
2016-11-05T04:14:39.734Z,0
2016-11-05T04:15:50.518Z,0
2016-11-05T04:17:01.691Z,0
2016-11-05T04:18:13.165Z,0
2016-11-05T04:19:24.667Z,0
2016-11-05T04:20:35.361Z,0
2016-11-05T04:21:46.210Z,0
2016-11-05T04:22:57.862Z,0
2016-11-05T04:24:08.579Z,0
2016-11-05T04:25:19.671Z,0
2016-11-05T04:26:30.722Z,0
2016-11-05T04:27:41.815Z,0
2016-11-05T04:28:52.876Z,0
2016-11-05T04:30:03.895Z,0
2016-11-05T04:31:15.116Z,0
2016-11-05T04:32:26.200Z,0
2016-11-05T04:33:37.711Z,0
2016-11-05T04:34:48.882Z,0
2016-11-05T04:35:59.615Z,0
2016-11-05T04:37:10.770Z,0
2016-11-05T04:38:21.529Z,0
2016-11-05T04:39:33.058Z,0
2016-11-05T04:40:44.566Z,0
2016-11-05T04:41:55.676Z,0
2016-11-05T04:43:06.809Z,0
2016-11-05T04:44:17.526Z,0
2016-11-05T04:45:29.126Z,0
2016-11-05T04:46:40.220Z,0
2016-11-05T04:47:51.015Z,0
2016-11-05T04:49:01.798Z,0
2016-11-05T04:50:12.574Z,0
2016-11-05T04:51:23.252Z,0
2016-11-05T04:52:33.980Z,0
2016-11-05T04:53:45.383Z,0
2016-11-05T04:54:56.535Z,0
2016-11-05T04:56:07.200Z,0
2016-11-05T04:57:18.315Z,0
2016-11-05T04:58:29.011Z,0
2016-11-05T04:59:40.144Z,0
2016-11-05T05:00:50.947Z,0
2016-11-05T05:02:01.743Z,0
2016-11-05T05:03:12.591Z,0
2016-11-05T05:04:23.366Z,0
2016-11-05T05:05:34.016Z,0
2016-11-05T05:06:44.707Z,0
2016-11-05T05:07:55.779Z,0
2016-11-05T05:09:06.576Z,0
2016-11-05T05:10:17.680Z,0
2016-11-05T05:11:28.777Z,0
2016-11-05T05:12:39.894Z,0
2016-11-05T05:13:50.658Z,0
2016-11-05T05:15:01.400Z,0
2016-11-05T05:16:12.482Z,0
2016-11-05T05:17:23.538Z,0
2016-11-05T05:18:35.020Z,0
2016-11-05T05:19:45.719Z,0
2016-11-05T05:20:56.926Z,0
2016-11-05T05:22:08.190Z,0
2016-11-05T05:23:19.301Z,0
2016-11-05T05:24:30.073Z,0
2016-11-05T05:25:41.208Z,0
2016-11-05T05:26:51.854Z,0
2016-11-05T05:28:03.449Z,0
2016-11-05T05:29:14.228Z,0
2016-11-05T05:30:24.981Z,0
2016-11-05T05:31:36.095Z,0
2016-11-05T05:32:47.277Z,0
2016-11-05T05:33:59.455Z,0
2016-11-05T05:35:10.988Z,0
2016-11-05T05:36:22.104Z,0
2016-11-05T05:37:33.159Z,0
2016-11-05T05:38:44.421Z,0
2016-11-05T05:39:55.498Z,0
2016-11-05T05:41:06.648Z,0
2016-11-05T05:42:17.736Z,0
2016-11-05T05:43:28.456Z,0
2016-11-05T05:44:39.648Z,0
2016-11-05T05:45:50.794Z,0
2016-11-05T05:47:01.910Z,0
2016-11-05T05:48:12.594Z,0
2016-11-05T05:49:23.246Z,0
2016-11-05T05:50:34.492Z,0
2016-11-05T05:51:45.196Z,0
2016-11-05T05:52:55.871Z,0
2016-11-05T05:54:06.565Z,0
2016-11-05T05:55:17.294Z,0
2016-11-05T05:56:28.763Z,0
2016-11-05T05:57:40.582Z,0
2016-11-05T05:58:51.682Z,0
2016-11-05T06:00:03.172Z,0
2016-11-05T06:01:13.841Z,0
2016-11-05T06:02:24.588Z,0
2016-11-05T06:03:35.313Z,0
2016-11-05T06:04:46.394Z,0
2016-11-05T06:05:58.251Z,0
2016-11-05T06:07:09.346Z,0
2016-11-05T06:08:20.889Z,0
2016-11-05T06:09:31.942Z,0
2016-11-05T06:10:42.713Z,0
2016-11-05T06:11:54.844Z,0
2016-11-05T06:13:05.559Z,0
2016-11-05T06:14:16.481Z,0
2016-11-05T06:15:27.210Z,0
2016-11-05T06:16:38.296Z,0
2016-11-05T06:17:49.628Z,0
2016-11-05T06:19:00.756Z,0
2016-11-05T06:20:12.032Z,0
2016-11-05T06:21:23.212Z,0
2016-11-05T06:22:33.930Z,0
2016-11-05T06:23:44.675Z,0
2016-11-05T06:24:55.426Z,0
2016-11-05T06:26:06.177Z,0
2016-11-05T06:27:16.854Z,0
2016-11-05T06:28:28.013Z,0
2016-11-05T06:29:38.736Z,0
2016-11-05T06:30:49.814Z,0
2016-11-05T06:32:00.630Z,0
2016-11-05T06:33:11.757Z,0
2016-11-05T06:34:23.220Z,0
2016-11-05T06:35:34.302Z,0
2016-11-05T06:36:45.053Z,0
2016-11-05T06:37:55.860Z,0
2016-11-05T06:39:06.594Z,0
2016-11-05T06:40:17.728Z,0
2016-11-05T06:41:28.497Z,0
2016-11-05T06:42:39.593Z,0
2016-11-05T06:43:50.333Z,0
2016-11-05T06:45:01.565Z,0
2016-11-05T06:46:12.237Z,0
2016-11-05T06:47:23.334Z,0
2016-11-05T06:48:33.989Z,0
2016-11-05T06:49:44.572Z,0
2016-11-05T06:50:56.093Z,0
2016-11-05T06:52:06.824Z,0
2016-11-05T06:53:17.546Z,0
2016-11-05T06:54:28.657Z,0
2016-11-05T06:55:39.844Z,0
2016-11-05T06:56:50.617Z,0
2016-11-05T06:58:01.790Z,0
2016-11-05T06:59:12.956Z,0
2016-11-05T07:00:24.109Z,0
2016-11-05T07:01:35.057Z,0
2016-11-05T07:02:46.106Z,0
2016-11-05T07:03:57.606Z,0
2016-11-05T07:05:08.282Z,0
2016-11-05T07:06:19.363Z,0
2016-11-05T07:07:30.418Z,0
2016-11-05T07:08:41.211Z,0
2016-11-05T07:09:52.679Z,0
2016-11-05T07:11:03.437Z,0
2016-11-05T07:12:14.870Z,0
2016-11-05T07:13:25.587Z,0
2016-11-05T07:14:36.714Z,0
2016-11-05T07:15:48.260Z,0
2016-11-05T07:16:58.997Z,0
2016-11-05T07:18:10.444Z,0
2016-11-05T07:19:22.017Z,0
2016-11-05T07:20:33.068Z,0
2016-11-05T07:21:44.940Z,0
2016-11-05T07:22:55.630Z,0
2016-11-05T07:24:06.657Z,0
2016-11-05T07:25:17.811Z,0
2016-11-05T07:26:28.519Z,0
2016-11-05T07:27:39.550Z,0
2016-11-05T07:28:50.224Z,0
2016-11-05T07:30:00.919Z,0
2016-11-05T07:31:12.015Z,0
2016-11-05T07:32:22.746Z,0
2016-11-05T07:33:33.840Z,0
2016-11-05T07:34:44.598Z,0
2016-11-05T07:35:56.055Z,0
2016-11-05T07:37:06.782Z,0
2016-11-05T07:38:18.212Z,0
2016-11-05T07:39:29.709Z,0
2016-11-05T07:40:40.760Z,0
2016-11-05T07:41:51.808Z,0
2016-11-05T07:43:02.966Z,0
2016-11-05T07:44:14.067Z,0
2016-11-05T07:45:25.160Z,0
2016-11-05T07:46:35.901Z,0
2016-11-05T07:47:47.042Z,0
2016-11-05T07:48:58.116Z,0
2016-11-05T07:50:08.804Z,0
2016-11-05T07:51:19.479Z,0
2016-11-05T07:52:30.571Z,0
2016-11-05T07:53:41.266Z,0
2016-11-05T07:54:52.312Z,0
2016-11-05T07:56:03.468Z,0
2016-11-05T07:57:14.197Z,0
2016-11-05T07:58:24.880Z,0
2016-11-05T07:59:35.568Z,0
2016-11-05T08:00:46.771Z,0
2016-11-05T08:01:57.861Z,0
2016-11-05T08:03:09.012Z,0
2016-11-05T08:04:20.633Z,0
2016-11-05T08:05:32.273Z,0
2016-11-05T08:06:43.449Z,0
2016-11-05T08:07:54.568Z,0
2016-11-05T08:09:05.297Z,0
2016-11-05T08:10:16.382Z,0
2016-11-05T08:11:27.133Z,0
2016-11-05T08:12:38.205Z,0
2016-11-05T08:13:49.690Z,0
2016-11-05T08:15:01.140Z,0
2016-11-05T08:16:12.246Z,0
2016-11-05T08:17:23.362Z,5
2016-11-05T08:18:34.063Z,5
2016-11-05T08:19:44.797Z,5
2016-11-05T08:20:55.552Z,5
2016-11-05T08:22:06.630Z,5
2016-11-05T08:23:18.042Z,10
2016-11-05T08:24:29.155Z,10
2016-11-05T08:25:39.891Z,10
2016-11-05T08:26:50.611Z,10
2016-11-05T08:28:01.705Z,15
2016-11-05T08:29:12.820Z,15
2016-11-05T08:30:23.616Z,20
2016-11-05T08:31:34.331Z,20
2016-11-05T08:32:45.863Z,20
2016-11-05T08:33:56.925Z,25
2016-11-05T08:35:08.391Z,25
2016-11-05T08:36:19.095Z,30
2016-11-05T08:37:30.306Z,35
2016-11-05T08:38:41.020Z,40
2016-11-05T08:39:52.138Z,40
2016-11-05T08:41:03.191Z,40
2016-11-05T08:42:13.881Z,40
2016-11-05T08:43:25.418Z,40
2016-11-05T08:44:36.117Z,40
2016-11-05T08:45:46.794Z,45
2016-11-05T08:46:57.858Z,45
2016-11-05T08:48:09.016Z,45
2016-11-05T08:49:19.711Z,50
2016-11-05T08:50:30.813Z,50
2016-11-05T08:51:41.512Z,50
2016-11-05T08:52:52.184Z,50
2016-11-05T08:54:02.939Z,50
2016-11-05T08:55:14.002Z,50
2016-11-05T08:56:24.722Z,55
2016-11-05T08:57:35.854Z,65
2016-11-05T08:58:47.017Z,70
2016-11-05T08:59:57.699Z,70
2016-11-05T09:01:08.372Z,80
2016-11-05T09:02:19.663Z,85
2016-11-05T09:03:31.347Z,95
2016-11-05T09:04:42.109Z,100
2016-11-05T09:05:53.265Z,105
2016-11-05T09:07:03.983Z,115
2016-11-05T09:08:15.058Z,125
2016-11-05T09:09:25.853Z,135
2016-11-05T09:10:37.325Z,145
2016-11-05T09:11:48.209Z,180
2016-11-05T09:12:58.939Z,215
2016-11-05T09:14:09.625Z,220
2016-11-05T09:15:21.095Z,220
2016-11-05T09:16:31.775Z,220
2016-11-05T09:17:42.573Z,215
2016-11-05T09:18:53.642Z,210
2016-11-05T09:20:04.324Z,185
2016-11-05T09:21:15.468Z,170
2016-11-05T09:22:26.153Z,190
2016-11-05T09:23:37.167Z,215
2016-11-05T09:24:47.875Z,210
2016-11-05T09:25:59.034Z,215
2016-11-05T09:27:09.776Z,210
2016-11-05T09:28:20.830Z,225
2016-11-05T09:29:31.976Z,235
2016-11-05T09:30:42.582Z,245
2016-11-05T09:31:53.322Z,245
2016-11-05T09:33:04.462Z,250
2016-11-05T09:34:15.548Z,225
2016-11-05T09:35:26.343Z,260
2016-11-05T09:36:37.117Z,285
2016-11-05T09:37:47.877Z,285
2016-11-05T09:38:58.945Z,320
2016-11-05T09:40:09.622Z,315
2016-11-05T09:41:20.533Z,315
2016-11-05T09:42:31.639Z,305
2016-11-05T09:43:42.734Z,300
2016-11-05T09:44:53.425Z,300
2016-11-05T09:46:04.161Z,310
2016-11-05T09:47:15.228Z,315
2016-11-05T09:48:26.381Z,305
2016-11-05T09:49:37.780Z,340
2016-11-05T09:50:48.808Z,345
2016-11-05T09:51:59.495Z,310
2016-11-05T09:53:10.212Z,290
2016-11-05T09:54:21.306Z,285
2016-11-05T09:55:32.041Z,290
2016-11-05T09:56:43.129Z,300
2016-11-05T09:57:53.838Z,320
2016-11-05T09:59:05.055Z,320
2016-11-05T10:00:15.827Z,305
2016-11-05T10:01:26.557Z,280
2016-11-05T10:02:37.664Z,300
2016-11-05T10:03:48.429Z,355
2016-11-05T10:04:59.225Z,360
2016-11-05T10:06:09.902Z,310
2016-11-05T10:07:21.150Z,290
2016-11-05T10:08:31.863Z,290
2016-11-05T10:09:43.004Z,310
2016-11-05T10:10:53.653Z,305
2016-11-05T10:12:04.319Z,290
2016-11-05T10:13:15.463Z,295
2016-11-05T10:14:26.250Z,335
2016-11-05T10:15:37.027Z,365
2016-11-05T10:16:47.912Z,360
2016-11-05T10:17:59.366Z,340
2016-11-05T10:19:10.439Z,325
2016-11-05T10:20:21.173Z,320
2016-11-05T10:21:32.258Z,295
2016-11-05T10:22:44.636Z,305
2016-11-05T10:23:55.351Z,315
2016-11-05T10:25:06.468Z,310
2016-11-05T10:26:17.533Z,290
2016-11-05T10:27:29.054Z,310
2016-11-05T10:28:39.764Z,315
2016-11-05T10:29:50.843Z,340
2016-11-05T10:31:01.519Z,360
2016-11-05T10:32:12.614Z,340
2016-11-05T10:33:23.716Z,345
2016-11-05T10:34:34.449Z,385
2016-11-05T10:35:45.116Z,415
2016-11-05T10:36:55.799Z,430
2016-11-05T10:38:07.303Z,455
2016-11-05T10:39:17.997Z,455
2016-11-05T10:40:28.835Z,415
2016-11-05T10:41:39.907Z,405
2016-11-05T10:42:50.651Z,395
2016-11-05T10:44:01.256Z,405
2016-11-05T10:45:11.975Z,380
2016-11-05T10:46:23.452Z,400
2016-11-05T10:47:35.370Z,425
2016-11-05T10:48:46.048Z,440
2016-11-05T10:49:57.185Z,455
2016-11-05T10:51:08.323Z,490
2016-11-05T10:52:19.157Z,515
2016-11-05T10:53:29.842Z,485
2016-11-05T10:54:40.566Z,445
2016-11-05T10:55:51.272Z,460
2016-11-05T10:57:02.834Z,480
2016-11-05T10:58:13.967Z,495
2016-11-05T10:59:24.651Z,485
2016-11-05T11:00:35.375Z,535
2016-11-05T11:01:46.584Z,535
2016-11-05T11:02:57.292Z,550
2016-11-05T11:04:08.029Z,610
2016-11-05T11:05:18.665Z,600
2016-11-05T11:06:29.360Z,585
2016-11-05T11:07:40.106Z,565
2016-11-05T11:08:51.195Z,535
2016-11-05T11:10:02.372Z,510
2016-11-05T11:11:13.094Z,510
2016-11-05T11:12:24.219Z,505
2016-11-05T11:13:35.385Z,485
2016-11-05T11:14:46.087Z,480
2016-11-05T11:15:57.834Z,460
2016-11-05T11:17:09.383Z,490
2016-11-05T11:18:20.889Z,525
2016-11-05T11:19:32.377Z,590
2016-11-05T11:20:43.584Z,545
2016-11-05T11:21:54.330Z,565
2016-11-05T11:23:06.324Z,550
2016-11-05T11:24:17.041Z,520
2016-11-05T11:25:27.829Z,565
2016-11-05T11:26:38.929Z,575
2016-11-05T11:27:50.247Z,535
2016-11-05T11:29:01.382Z,570
2016-11-05T11:30:12.069Z,670
2016-11-05T11:31:22.807Z,650
2016-11-05T11:32:33.921Z,605
2016-11-05T11:33:44.741Z,685
2016-11-05T11:34:56.239Z,735
2016-11-05T11:36:06.939Z,670
2016-11-05T11:37:18.057Z,675
2016-11-05T11:38:28.759Z,580
2016-11-05T11:39:39.875Z,510
2016-11-05T11:40:50.579Z,555
2016-11-05T11:42:02.456Z,625
2016-11-05T11:43:13.211Z,640
2016-11-05T11:44:23.958Z,675
2016-11-05T11:45:36.194Z,710
2016-11-05T11:46:47.399Z,735
2016-11-05T11:47:58.952Z,770
2016-11-05T11:49:10.104Z,750
2016-11-05T11:50:20.791Z,755
2016-11-05T11:51:31.683Z,690
2016-11-05T11:52:42.864Z,615
2016-11-05T11:53:53.570Z,650
2016-11-05T11:55:04.349Z,725
2016-11-05T11:56:15.068Z,700
2016-11-05T11:57:25.799Z,810
2016-11-05T11:58:37.299Z,980
2016-11-05T11:59:48.471Z,960
2016-11-05T12:00:59.138Z,845
2016-11-05T12:02:09.870Z,840
2016-11-05T12:03:24.030Z,980
2016-11-05T12:04:35.525Z,1025
2016-11-05T12:05:46.240Z,1060
2016-11-05T12:07:00.713Z,1125
2016-11-05T12:08:11.561Z,910
2016-11-05T12:09:22.347Z,840
2016-11-05T12:10:33.941Z,785
2016-11-05T12:11:45.959Z,805
2016-11-05T12:13:28.877Z,880
2016-11-05T12:14:39.553Z,960
2016-11-05T12:15:50.971Z,960
2016-11-05T12:17:02.060Z,955
2016-11-05T12:18:12.704Z,995
2016-11-05T12:19:23.512Z,960
2016-11-05T12:20:34.621Z,1095
2016-11-05T12:21:45.321Z,1040
2016-11-05T12:22:56.381Z,1010
2016-11-05T12:24:07.079Z,920
2016-11-05T12:25:18.432Z,1105
2016-11-05T12:26:30.082Z,1010
2016-11-05T12:27:41.172Z,950
2016-11-05T12:28:52.381Z,895
2016-11-05T12:30:03.505Z,850
2016-11-05T12:31:14.539Z,895
2016-11-05T12:32:25.612Z,950
2016-11-05T12:33:36.384Z,930
2016-11-05T12:34:47.149Z,850
2016-11-05T12:35:58.219Z,785
2016-11-05T12:37:09.307Z,855
2016-11-05T12:38:20.035Z,1105
2016-11-05T12:39:31.144Z,1025
2016-11-05T12:40:41.794Z,1340
2016-11-05T12:41:52.563Z,1060
2016-11-05T12:43:03.778Z,1060
2016-11-05T12:44:14.500Z,910
2016-11-05T12:45:25.641Z,805
2016-11-05T12:46:36.387Z,830
2016-11-05T12:47:47.168Z,820
2016-11-05T12:48:58.059Z,815
2016-11-05T12:50:08.793Z,835
2016-11-05T12:51:19.883Z,840
2016-11-05T12:52:31.027Z,835
2016-11-05T12:53:42.202Z,815
2016-11-05T12:54:54.500Z,805
2016-11-05T12:56:05.623Z,735
2016-11-05T12:57:16.397Z,685
2016-11-05T12:58:27.551Z,710
2016-11-05T12:59:38.614Z,765
2016-11-05T13:00:49.367Z,770
2016-11-05T13:02:00.409Z,800
2016-11-05T13:03:11.438Z,685
2016-11-05T13:04:22.125Z,685
2016-11-05T13:05:32.847Z,805
2016-11-05T13:06:44.068Z,820
2016-11-05T13:07:54.863Z,835
2016-11-05T13:09:06.005Z,830
2016-11-05T13:10:17.502Z,710
2016-11-05T13:11:28.620Z,610
2016-11-05T13:12:39.775Z,590
2016-11-05T13:13:51.288Z,615
2016-11-05T13:15:01.962Z,715
2016-11-05T13:16:13.076Z,855
2016-11-05T13:17:24.534Z,970
2016-11-05T13:18:35.988Z,895
2016-11-05T13:19:47.136Z,920
2016-11-05T13:20:58.201Z,965
2016-11-05T13:22:09.239Z,1025
2016-11-05T13:23:20.316Z,1165
2016-11-05T13:24:31.129Z,1380
2016-11-05T13:25:41.907Z,1155
2016-11-05T13:26:52.984Z,1030
2016-11-05T13:28:03.673Z,960
2016-11-05T13:29:14.334Z,935
2016-11-05T13:30:25.498Z,1045
2016-11-05T13:31:36.629Z,890
2016-11-05T13:32:47.332Z,885
2016-11-05T13:33:59.107Z,1220
2016-11-05T13:35:10.582Z,1860
2016-11-05T13:36:21.427Z,1765
2016-11-05T13:37:32.147Z,1225
2016-11-05T13:38:43.693Z,1980
2016-11-05T13:39:54.461Z,2380
2016-11-05T13:41:05.143Z,1075
2016-11-05T13:42:15.942Z,1110
2016-11-05T13:43:26.723Z,1060
2016-11-05T13:44:37.372Z,975
2016-11-05T13:45:48.894Z,1005
2016-11-05T13:46:59.640Z,1140
2016-11-05T13:48:10.358Z,1090
2016-11-05T13:49:21.490Z,1250
2016-11-05T13:50:32.254Z,1030
2016-11-05T13:51:42.896Z,925
2016-11-05T13:52:53.618Z,960
2016-11-05T13:54:04.866Z,1150
2016-11-05T13:55:15.541Z,1125
2016-11-05T13:56:27.159Z,1100
2016-11-05T13:57:37.889Z,1165
2016-11-05T13:58:48.991Z,1115
2016-11-05T13:59:59.817Z,980
2016-11-05T14:01:11.326Z,885
2016-11-05T14:02:22.050Z,930
2016-11-05T14:03:33.667Z,875
2016-11-05T14:04:44.421Z,895
2016-11-05T14:05:55.161Z,935
2016-11-05T14:07:05.890Z,1145
2016-11-05T14:08:16.985Z,1250
2016-11-05T14:09:28.474Z,865
2016-11-05T14:10:39.621Z,730
2016-11-05T14:11:50.281Z,715
2016-11-05T14:13:01.819Z,735
2016-11-05T14:14:13.094Z,750
2016-11-05T14:15:24.325Z,825
2016-11-05T14:16:35.408Z,835
2016-11-05T14:17:46.214Z,835
2016-11-05T14:18:56.950Z,805
2016-11-05T14:20:08.079Z,750
2016-11-05T14:21:18.758Z,690
2016-11-05T14:22:29.508Z,645
2016-11-05T14:23:40.172Z,645
2016-11-05T14:24:50.883Z,660
2016-11-05T14:26:01.590Z,670
2016-11-05T14:27:13.070Z,640
2016-11-05T14:28:24.154Z,625
2016-11-05T14:29:35.941Z,605
2016-11-05T14:30:47.958Z,590
2016-11-05T14:31:59.060Z,520
2016-11-05T14:33:10.332Z,500
2016-11-05T14:34:21.044Z,515
2016-11-05T14:35:32.249Z,500
2016-11-05T14:36:42.964Z,495
2016-11-05T14:37:53.680Z,525
2016-11-05T14:39:04.767Z,580
2016-11-05T14:40:15.929Z,665
2016-11-05T14:41:27.240Z,715
2016-11-05T14:42:38.415Z,705
2016-11-05T14:43:49.138Z,675
2016-11-05T14:45:00.315Z,630
2016-11-05T14:46:10.989Z,590
2016-11-05T14:47:22.113Z,565
2016-11-05T14:48:33.674Z,565
2016-11-05T14:49:44.467Z,595
2016-11-05T14:50:55.930Z,645
2016-11-05T14:52:07.500Z,680
2016-11-05T14:53:18.738Z,670
2016-11-05T14:54:29.467Z,695
2016-11-05T14:55:40.663Z,745
2016-11-05T14:56:51.358Z,730
2016-11-05T14:58:02.131Z,725
2016-11-05T14:59:12.962Z,730
2016-11-05T15:00:24.506Z,680
2016-11-05T15:01:35.688Z,580
2016-11-05T15:02:46.469Z,480
2016-11-05T15:03:58.166Z,445
2016-11-05T15:05:08.915Z,430
2016-11-05T15:06:20.197Z,460
2016-11-05T15:07:30.961Z,550
2016-11-05T15:08:41.665Z,595
2016-11-05T15:09:52.410Z,580
2016-11-05T15:11:04.392Z,560
2016-11-05T15:12:15.423Z,580
2016-11-05T15:13:26.194Z,505
2016-11-05T15:14:37.766Z,545
2016-11-05T15:15:48.548Z,575
2016-11-05T15:16:59.401Z,585
2016-11-05T15:18:10.893Z,685
2016-11-05T15:19:22.183Z,670
2016-11-05T15:20:33.672Z,745
2016-11-05T15:21:45.211Z,820
2016-11-05T15:22:55.979Z,665
2016-11-05T15:24:07.118Z,650
2016-11-05T15:25:18.212Z,640
2016-11-05T15:26:28.937Z,530
2016-11-05T15:27:39.746Z,555
2016-11-05T15:28:50.859Z,610
2016-11-05T15:30:01.551Z,615
2016-11-05T15:31:13.194Z,595
2016-11-05T15:32:23.929Z,610
2016-11-05T15:33:35.028Z,705
2016-11-05T15:34:46.293Z,890
2016-11-05T15:35:57.034Z,1175
2016-11-05T15:37:07.747Z,1380
2016-11-05T15:38:18.913Z,740
2016-11-05T15:39:29.645Z,630
2016-11-05T15:40:40.481Z,685
2016-11-05T15:41:51.266Z,770
2016-11-05T15:43:02.048Z,815
2016-11-05T15:44:13.570Z,730
2016-11-05T15:45:24.211Z,685
2016-11-05T15:46:35.776Z,775
2016-11-05T15:47:47.628Z,835
2016-11-05T15:48:58.405Z,845
2016-11-05T15:50:09.173Z,815
2016-11-05T15:51:20.309Z,710
2016-11-05T15:52:31.490Z,645
2016-11-05T15:53:42.208Z,820
2016-11-05T15:54:52.927Z,725
2016-11-05T15:56:04.389Z,685
2016-11-05T15:57:15.082Z,555
2016-11-05T15:58:25.966Z,620
2016-11-05T15:59:36.700Z,555
2016-11-05T16:00:47.862Z,515
2016-11-05T16:01:58.656Z,470
2016-11-05T16:03:09.344Z,420
2016-11-05T16:04:20.178Z,455
2016-11-05T16:05:31.343Z,455
2016-11-05T16:06:42.484Z,530
2016-11-05T16:07:53.176Z,540
2016-11-05T16:09:04.308Z,390
2016-11-05T16:10:15.431Z,400
2016-11-05T16:11:26.206Z,495
2016-11-05T16:12:37.731Z,535
2016-11-05T16:13:48.470Z,435
2016-11-05T16:14:59.189Z,455
2016-11-05T16:16:09.923Z,395
2016-11-05T16:17:21.822Z,375
2016-11-05T16:18:33.365Z,445
2016-11-05T16:19:44.027Z,525
2016-11-05T16:20:55.155Z,495
2016-11-05T16:22:05.997Z,460
2016-11-05T16:23:17.501Z,445
2016-11-05T16:24:28.622Z,480
2016-11-05T16:25:39.769Z,525
2016-11-05T16:26:50.832Z,560
2016-11-05T16:28:01.719Z,565
2016-11-05T16:29:12.508Z,540
2016-11-05T16:30:23.188Z,525
2016-11-05T16:31:33.938Z,650
2016-11-05T16:32:44.660Z,670
2016-11-05T16:33:55.413Z,620
2016-11-05T16:35:06.136Z,600
2016-11-05T16:36:16.907Z,480
2016-11-05T16:37:28.464Z,490
2016-11-05T16:38:39.552Z,560
2016-11-05T16:39:50.472Z,595
2016-11-05T16:41:01.181Z,440
2016-11-05T16:42:11.904Z,440
2016-11-05T16:43:23.868Z,470
2016-11-05T16:44:35.034Z,490
2016-11-05T16:45:46.545Z,450
2016-11-05T16:46:58.207Z,475
2016-11-05T16:48:08.928Z,570
2016-11-05T16:49:19.660Z,640
2016-11-05T16:50:31.702Z,535
2016-11-05T16:51:42.400Z,435
2016-11-05T16:52:53.507Z,445
2016-11-05T16:54:04.260Z,515